METAR Data
IDs: Format: Raw Decoded Include TAF

Data at: 1336 UTC 20 Oct 2021

ENZV 201320Z 24017KT 9999 VCSH FEW018 SCT027 BKN057 12/08 Q0985 TEMPO BKN014